Dati Storici

Data ora Umidita' aria (%) Temperatura aria (°C) Rad globale (W/m²) Gonioanemometro (°) Tacoanemometro (m/s) Pioggia (mm)
09-11-2012 06:50 91.3 % 5.693 1.805 3.335 0.368 0
09-11-2012 06:40 91.5 % 5.993 1.882 354.225 0.74 0
09-11-2012 06:30 91 % 5.971 1.793 1.215 0.193 0
09-11-2012 06:20 91.2 % 6.095 1.77 77.926 0.495 0
09-11-2012 06:10 92.2 % 6.29 2.168 329.114 1.044 0
09-11-2012 06:00 92.3 % 6.354 1.988 351.073 0.987 0
09-11-2012 05:50 92 % 6.056 2.09 339.636 0.003 0
09-11-2012 05:40 91.9 % 6.097 2.129 16.21 0.774 0
09-11-2012 05:30 91.9 % 6.23 1.609 186.319 0.453 0
09-11-2012 05:20 91.6 % 6.053 1.494 320.03 0.001 0
09-11-2012 05:10 92.1 % 6.313 1.455 190.096 0.143 0
09-11-2012 05:00 92.4 % 6.491 1.699 345.122 0.663 0
09-11-2012 04:50 92.4 % 6.303 1.943 26.272 0.492 0
09-11-2012 04:40 92.2 % 6.281 1.45 2.085 0.37 0
09-11-2012 04:30 92.8 % 6.525 1.911 225.489 0.274 0
09-11-2012 04:20 92.7 % 6.498 2.078 21.421 1.437 0
09-11-2012 04:10 92 % 6.39 1.501 178.284 0.841 0
09-11-2012 04:00 91.3 % 6.306 1.198 187.822 0.415 0
09-11-2012 03:50 91.5 % 6.534 1.699 186.23 0.313 0
09-11-2012 03:40 91.5 % 6.632 1.75 104.088 0.428 0

I dati sono presentati in modo automatico a scopo informativo. In seguito a verifica i dati possono subire modifiche o essere invalidati e non riportati negli archivi definitivi.